Time;durP1;ratioP1;P1;durP2;ratioP2;P2;SDS_P1;SDS_P2;PMS_P1;PMS_P2;Temp;Humidity;BMP_temperature;BMP_pressure;BME280_temperature;BME280_humidity;BME280_pressure;Samples;Min_cycle;Max_cycle;Signal;HPM_P1;HPM_P2
2021/07/09 00:00:59;;;;;;;58.13;28.85;;;;;;;;;;5091169;28;20052;-63
2021/07/09 00:03:44;;;;;;;67.82;32.55;;;;;;;;;;5091534;28;20058;-63
2021/07/09 00:06:29;;;;;;;75.72;32.75;;;;;;;;;;5087450;28;20041;-63
2021/07/09 00:09:15;;;;;;;68.93;32.72;;;;;;;;;;5091049;28;20051;-65
2021/07/09 00:12:01;;;;;;;68.43;32.88;;;;;;;;;;5093361;28;20141;-65
2021/07/09 00:14:46;;;;;;;65.20;31.75;;;;;;;;;;5090852;28;20044;-64
2021/07/09 00:17:32;;;;;;;79.20;35.75;;;;;;;;;;5091999;28;20525;-65
2021/07/09 00:20:17;;;;;;;82.90;35.03;;;;;;;;;;5093923;28;20044;-65
2021/07/09 00:23:03;;;;;;;67.68;32.13;;;;;;;;;;5094943;28;20134;-65
2021/07/09 00:25:49;;;;;;;64.65;31.60;;;;;;;;;;5094851;28;20058;-65
2021/07/09 00:28:34;;;;;;;48.90;27.52;;;;;;;;;;5093198;28;20041;-65
2021/07/09 00:31:19;;;;;;;53.72;27.25;;;;;;;;;;5094579;28;20044;-65
2021/07/09 00:34:05;;;;;;;47.97;25.80;;;;;;;;;;5094701;28;20052;-65
2021/07/09 00:36:51;;;;;;;73.30;32.33;;;;;;;;;;5093532;28;20043;-66
2021/07/09 00:39:36;;;;;;;82.38;36.47;;;;;;;;;;5074198;28;20392;-65
2021/07/09 00:42:23;;;;;;;77.25;34.13;;;;;;;;;;5074250;28;20040;-65
2021/07/09 00:45:09;;;;;;;82.50;34.88;;;;;;;;;;5074444;28;20548;-65
2021/07/09 00:47:55;;;;;;;91.38;36.20;;;;;;;;;;5077755;28;20409;-65
2021/07/09 00:50:40;;;;;;;92.20;36.92;;;;;;;;;;5094084;28;20044;-65
2021/07/09 00:53:25;;;;;;;76.05;32.85;;;;;;;;;;5094319;28;20052;-65
2021/07/09 00:56:11;;;;;;;76.53;30.23;;;;;;;;;;5094488;28;20059;-65
2021/07/09 00:58:57;;;;;;;82.82;33.33;;;;;;;;;;5091689;28;20051;-65
2021/07/09 01:01:42;;;;;;;92.53;36.92;;;;;;;;;;5091602;28;20409;-65
2021/07/09 01:04:27;;;;;;;96.70;39.03;;;;;;;;;;5094303;28;20067;-64
2021/07/09 01:07:13;;;;;;;116.30;40.45;;;;;;;;;;5094247;28;20101;-65
2021/07/09 01:09:58;;;;;;;82.50;36.63;;;;;;;;;;5092060;28;20044;-65
2021/07/09 01:12:44;;;;;;;111.65;39.08;;;;;;;;;;5092193;28;20054;-65
2021/07/09 01:15:29;;;;;;;116.78;42.22;;;;;;;;;;5092526;28;20044;-65
2021/07/09 01:18:14;;;;;;;107.32;38.60;;;;;;;;;;5092585;28;20048;-64
2021/07/09 01:21:01;;;;;;;115.25;40.22;;;;;;;;;;5053224;28;20735;-64
2021/07/09 01:23:47;;;;;;;107.20;39.38;;;;;;;;;;5053288;28;20634;-64
2021/07/09 01:26:33;;;;;;;108.88;41.42;;;;;;;;;;5052395;28;20492;-65
2021/07/09 01:29:18;;;;;;;87.85;36.22;;;;;;;;;;5063551;28;20174;-64
2021/07/09 01:32:03;;;;;;;76.88;34.05;;;;;;;;;;5092152;28;20174;-64
2021/07/09 01:34:48;;;;;;;97.00;37.13;;;;;;;;;;5093433;28;20521;-64
2021/07/09 01:37:34;;;;;;;97.70;37.22;;;;;;;;;;5093525;28;20517;-64
2021/07/09 01:40:19;;;;;;;95.38;37.40;;;;;;;;;;5091695;28;20048;-65
2021/07/09 01:43:05;;;;;;;89.85;34.45;;;;;;;;;;5093119;28;20482;-64
2021/07/09 01:45:50;;;;;;;110.18;37.60;;;;;;;;;;5093575;28;20048;-65
2021/07/09 01:48:35;;;;;;;89.82;37.20;;;;;;;;;;5093393;28;20166;-64
2021/07/09 01:51:21;;;;;;;99.07;38.75;;;;;;;;;;5091413;28;20502;-65
2021/07/09 01:54:06;;;;;;;80.88;34.95;;;;;;;;;;5093396;28;20075;-65
2021/07/09 01:56:52;;;;;;;114.63;40.53;;;;;;;;;;5093088;28;20448;-64
2021/07/09 01:59:38;;;;;;;95.60;35.83;;;;;;;;;;5091674;28;20142;-64
2021/07/09 02:02:23;;;;;;;116.43;37.95;;;;;;;;;;5052558;28;20068;-65
2021/07/09 02:05:13;;;;;;;105.78;38.35;;;;;;;;;;5051997;28;20092;-64
2021/07/09 02:07:59;;;;;;;108.93;37.88;;;;;;;;;;5052601;28;20525;-64
2021/07/09 02:10:44;;;;;;;120.40;39.03;;;;;;;;;;5064361;28;20516;-65
2021/07/09 02:13:30;;;;;;;121.22;39.70;;;;;;;;;;5091120;28;20148;-64
2021/07/09 02:16:15;;;;;;;134.38;42.30;;;;;;;;;;5092387;28;20132;-65
2021/07/09 02:19:00;;;;;;;188.52;44.67;;;;;;;;;;5091819;28;20134;-65
2021/07/09 02:21:46;;;;;;;106.70;36.83;;;;;;;;;;5090974;28;20181;-65
2021/07/09 02:24:32;;;;;;;91.25;36.33;;;;;;;;;;5091691;28;20054;-64
2021/07/09 02:27:18;;;;;;;94.38;35.75;;;;;;;;;;5091979;28;20119;-65
2021/07/09 02:30:07;;;;;;;107.20;36.78;;;;;;;;;;5092374;28;20122;-65
2021/07/09 02:32:52;;;;;;;101.10;37.08;;;;;;;;;;5089250;28;20051;-65
2021/07/09 02:35:38;;;;;;;108.97;37.28;;;;;;;;;;5092593;28;20048;-64
2021/07/09 02:38:23;;;;;;;119.10;37.90;;;;;;;;;;5092452;28;20174;-65
2021/07/09 02:41:09;;;;;;;132.90;41.25;;;;;;;;;;5089091;28;20051;-65
2021/07/09 02:43:54;;;;;;;118.28;38.78;;;;;;;;;;5092279;28;20125;-64
2021/07/09 02:46:39;;;;;;;151.13;44.15;;;;;;;;;;5092358;28;20494;-65
2021/07/09 02:49:25;;;;;;;127.43;41.28;;;;;;;;;;5091975;28;20498;-65
2021/07/09 02:52:11;;;;;;;139.90;41.67;;;;;;;;;;5090452;28;20070;-65
2021/07/09 02:54:56;;;;;;;141.73;44.58;;;;;;;;;;5092304;28;20048;-65
2021/07/09 02:57:42;;;;;;;145.90;45.42;;;;;;;;;;5092119;28;20539;-65
2021/07/09 03:00:27;;;;;;;145.23;43.15;;;;;;;;;;5091762;28;20055;-65
2021/07/09 03:03:13;;;;;;;132.15;43.17;;;;;;;;;;5089987;28;20040;-65
2021/07/09 03:05:58;;;;;;;135.73;42.63;;;;;;;;;;5092138;28;20048;-64
2021/07/09 03:08:44;;;;;;;202.52;45.70;;;;;;;;;;5092066;28;20413;-64
2021/07/09 03:11:29;;;;;;;303.05;48.40;;;;;;;;;;5091646;28;20497;-64
2021/07/09 03:14:14;;;;;;;330.35;53.85;;;;;;;;;;5090228;28;20059;-65
2021/07/09 03:17:00;;;;;;;222.93;47.05;;;;;;;;;;5091869;28;20059;-65
2021/07/09 03:19:45;;;;;;;240.38;46.97;;;;;;;;;;5091646;28;20042;-65
2021/07/09 03:22:30;;;;;;;239.98;48.25;;;;;;;;;;5090326;28;20039;-65
2021/07/09 03:25:16;;;;;;;233.55;48.08;;;;;;;;;;5091726;28;20044;-65
2021/07/09 03:28:01;;;;;;;217.73;44.70;;;;;;;;;;5092017;28;20054;-65
2021/07/09 03:30:47;;;;;;;336.15;56.30;;;;;;;;;;5091525;28;20399;-65
2021/07/09 03:33:33;;;;;;;261.90;48.95;;;;;;;;;;5090306;28;20498;-64
2021/07/09 03:36:18;;;;;;;220.48;48.33;;;;;;;;;;5090114;28;20502;-65
2021/07/09 03:39:03;;;;;;;160.65;45.10;;;;;;;;;;5092732;28;20063;-65
2021/07/09 03:41:49;;;;;;;258.05;50.92;;;;;;;;;;5135243;22;20051;-63
2021/07/09 03:44:34;;;;;;;275.67;51.25;;;;;;;;;;5094020;28;20044;-63
2021/07/09 03:47:19;;;;;;;173.65;45.10;;;;;;;;;;5095748;28;20048;-63
2021/07/09 03:50:08;;;;;;;138.20;45.08;;;;;;;;;;5095463;28;20051;-63
2021/07/09 03:52:53;;;;;;;148.98;46.20;;;;;;;;;;5079604;28;20123;-63
2021/07/09 03:55:39;;;;;;;130.35;46.75;;;;;;;;;;5074234;28;20135;-63
2021/07/09 03:58:25;;;;;;;129.65;47.03;;;;;;;;;;5075310;28;20053;-63
2021/07/09 04:01:10;;;;;;;148.07;45.83;;;;;;;;;;5074898;28;20490;-63
2021/07/09 04:03:55;;;;;;;108.75;43.53;;;;;;;;;;5073656;28;20060;-63
2021/07/09 04:06:41;;;;;;;156.13;48.58;;;;;;;;;;5055403;28;20044;-62
2021/07/09 04:09:26;;;;;;;122.18;44.30;;;;;;;;;;5064258;28;20055;-63
2021/07/09 04:12:11;;;;;;;129.10;46.00;;;;;;;;;;5075174;28;20052;-63
2021/07/09 04:14:57;;;;;;;117.68;45.45;;;;;;;;;;5072815;28;20054;-62
2021/07/09 04:17:42;;;;;;;93.30;39.85;;;;;;;;;;5055078;28;20506;-63
2021/07/09 04:20:28;;;;;;;112.47;43.65;;;;;;;;;;5054744;28;20051;-63
2021/07/09 04:23:13;;;;;;;129.65;45.45;;;;;;;;;;5055336;28;20063;-63
2021/07/09 04:25:59;;;;;;;103.18;42.75;;;;;;;;;;5074758;28;20532;-63
2021/07/09 04:28:44;;;;;;;118.68;43.75;;;;;;;;;;5074693;28;20051;-63
2021/07/09 04:31:29;;;;;;;103.20;36.10;;;;;;;;;;5074321;28;20779;-63
2021/07/09 04:34:15;;;;;;;90.70;36.40;;;;;;;;;;5073690;28;20139;-63
2021/07/09 04:37:02;;;;;;;110.40;42.28;;;;;;;;;;5074682;28;20048;-63
2021/07/09 04:39:47;;;;;;;142.88;39.47;;;;;;;;;;5072309;28;20052;-63
2021/07/09 04:42:33;;;;;;;120.57;41.30;;;;;;;;;;5074277;28;20052;-63
2021/07/09 04:45:18;;;;;;;138.95;44.78;;;;;;;;;;5072621;28;20043;-63
2021/07/09 04:48:04;;;;;;;135.18;46.53;;;;;;;;;;5074759;28;20064;-63
2021/07/09 04:50:50;;;;;;;122.97;45.17;;;;;;;;;;5072302;28;20055;-63
2021/07/09 04:53:35;;;;;;;128.52;46.42;;;;;;;;;;5074326;28;20053;-63
2021/07/09 04:56:21;;;;;;;116.95;45.10;;;;;;;;;;5074358;28;20045;-63
2021/07/09 04:59:07;;;;;;;121.50;42.90;;;;;;;;;;5072150;28;20052;-64
2021/07/09 05:01:53;;;;;;;143.43;48.00;;;;;;;;;;5074271;28;20084;-63
2021/07/09 05:04:38;;;;;;;162.48;50.08;;;;;;;;;;5073937;28;20067;-63
2021/07/09 05:07:24;;;;;;;131.55;48.13;;;;;;;;;;5073942;28;20495;-63
2021/07/09 05:10:10;;;;;;;100.50;44.10;;;;;;;;;;5073018;28;20520;-63
2021/07/09 05:12:55;;;;;;;110.00;48.03;;;;;;;;;;5059817;28;20123;-64
2021/07/09 05:15:41;;;;;;;95.60;45.92;;;;;;;;;;5073131;28;20391;-63
2021/07/09 05:18:26;;;;;;;84.35;43.15;;;;;;;;;;5073960;28;20126;-63
2021/07/09 05:21:11;;;;;;;88.20;44.45;;;;;;;;;;5073231;28;20449;-63
2021/07/09 05:23:58;;;;;;;93.05;45.47;;;;;;;;;;5072721;28;20055;-63
2021/07/09 05:26:46;;;;;;;91.65;43.83;;;;;;;;;;5072880;28;20093;-63
2021/07/09 05:29:31;;;;;;;84.90;44.13;;;;;;;;;;5073385;28;20045;-63
2021/07/09 05:32:18;;;;;;;80.07;42.05;;;;;;;;;;5073385;28;20048;-63
2021/07/09 05:35:03;;;;;;;81.72;43.17;;;;;;;;;;5072344;28;20040;-63
2021/07/09 05:37:48;;;;;;;70.80;42.28;;;;;;;;;;5073417;28;20118;-63
2021/07/09 05:40:34;;;;;;;73.13;40.22;;;;;;;;;;5072539;28;20066;-63
2021/07/09 05:43:20;;;;;;;66.13;39.70;;;;;;;;;;5073201;28;20055;-63
2021/07/09 05:46:06;;;;;;;59.70;35.85;;;;;;;;;;5071558;28;20094;-63
2021/07/09 05:48:51;;;;;;;64.05;37.40;;;;;;;;;;5058114;28;20048;-63
2021/07/09 05:51:36;;;;;;;53.63;32.08;;;;;;;;;;5071979;28;20128;-63
2021/07/09 05:54:22;;;;;;;60.28;32.75;;;;;;;;;;5071312;28;20041;-63
2021/07/09 05:57:07;;;;;;;60.90;35.08;;;;;;;;;;5073078;28;20044;-63
2021/07/09 05:59:53;;;;;;;46.13;29.02;;;;;;;;;;5072891;28;20048;-64
2021/07/09 06:02:38;;;;;;;46.25;30.38;;;;;;;;;;5073116;28;20048;-63
2021/07/09 06:05:24;;;;;;;47.10;30.38;;;;;;;;;;5071948;28;20055;-63
2021/07/09 06:08:10;;;;;;;55.00;32.53;;;;;;;;;;5072246;28;20091;-63
2021/07/09 06:10:55;;;;;;;49.25;30.13;;;;;;;;;;5052706;28;20053;-63
2021/07/09 06:13:40;;;;;;;54.70;30.92;;;;;;;;;;5052736;28;20069;-63
2021/07/09 06:16:26;;;;;;;47.45;29.17;;;;;;;;;;5064590;28;20129;-63
2021/07/09 06:19:11;;;;;;;44.72;28.73;;;;;;;;;;5063409;28;20414;-64
2021/07/09 06:21:57;;;;;;;35.33;24.15;;;;;;;;;;5063181;28;20044;-64
2021/07/09 06:24:42;;;;;;;41.42;27.20;;;;;;;;;;5062785;28;20506;-64
2021/07/09 06:27:28;;;;;;;31.73;23.67;;;;;;;;;;5063266;28;20115;-64
2021/07/09 06:30:13;;;;;;;29.63;22.15;;;;;;;;;;5052360;28;20486;-64
2021/07/09 06:32:59;;;;;;;31.55;24.80;;;;;;;;;;5052345;28;20487;-64
2021/07/09 06:35:44;;;;;;;34.58;23.20;;;;;;;;;;5071452;28;20044;-63
2021/07/09 06:38:29;;;;;;;28.67;21.85;;;;;;;;;;5071441;28;20036;-63
2021/07/09 06:41:15;;;;;;;28.83;19.02;;;;;;;;;;5065747;28;20086;-64
2021/07/09 06:44:00;;;;;;;25.65;17.38;;;;;;;;;;5071174;28;20098;-63
2021/07/09 06:46:46;;;;;;;24.65;17.45;;;;;;;;;;5069576;28;20036;-63
2021/07/09 06:49:31;;;;;;;15.23;11.32;;;;;;;;;;5063610;28;20063;-63
2021/07/09 06:52:17;;;;;;;17.38;12.20;;;;;;;;;;5071090;28;20048;-63
2021/07/09 06:55:02;;;;;;;20.65;11.18;;;;;;;;;;5052202;28;20578;-63
2021/07/09 06:57:48;;;;;;;16.70;10.93;;;;;;;;;;5051926;28;20499;-63
2021/07/09 07:00:35;;;;;;;17.52;13.18;;;;;;;;;;5069219;28;20052;-63
2021/07/09 07:03:20;;;;;;;16.85;12.43;;;;;;;;;;5071935;28;20048;-64
2021/07/09 07:06:06;;;;;;;18.85;12.50;;;;;;;;;;5071944;28;20451;-63
2021/07/09 07:08:51;;;;;;;14.48;12.48;;;;;;;;;;5070888;28;20040;-63
2021/07/09 07:11:36;;;;;;;16.48;11.27;;;;;;;;;;5051691;28;20053;-63
2021/07/09 07:14:22;;;;;;;15.40;12.25;;;;;;;;;;5060919;28;20056;-63
2021/07/09 07:17:08;;;;;;;17.30;12.93;;;;;;;;;;5072024;28;20048;-64
2021/07/09 07:19:54;;;;;;;15.07;11.82;;;;;;;;;;5069732;28;20048;-63
2021/07/09 07:22:39;;;;;;;16.17;12.60;;;;;;;;;;5071780;28;20052;-64
2021/07/09 07:25:24;;;;;;;14.43;11.30;;;;;;;;;;5071878;28;20043;-63
2021/07/09 07:28:10;;;;;;;15.77;11.48;;;;;;;;;;5070849;28;20052;-63
2021/07/09 07:30:55;;;;;;;14.85;11.20;;;;;;;;;;5071692;28;20097;-63
2021/07/09 07:33:41;;;;;;;13.98;10.57;;;;;;;;;;5071933;28;20059;-63
2021/07/09 07:36:26;;;;;;;15.45;11.30;;;;;;;;;;5071975;28;20075;-63
2021/07/09 07:39:12;;;;;;;13.25;10.75;;;;;;;;;;5069644;28;20052;-63
2021/07/09 07:41:57;;;;;;;13.85;11.70;;;;;;;;;;5071553;28;20115;-64
2021/07/09 07:44:43;;;;;;;18.45;11.65;;;;;;;;;;5070595;28;20073;-63
2021/07/09 07:47:28;;;;;;;13.57;10.40;;;;;;;;;;5071418;28;20049;-63
2021/07/09 07:50:16;;;;;;;11.55;10.35;;;;;;;;;;5070192;28;20040;-63
2021/07/09 07:53:02;;;;;;;11.68;9.88;;;;;;;;;;5071334;28;20045;-63
2021/07/09 07:55:48;;;;;;;12.60;11.10;;;;;;;;;;5071504;28;20072;-63
2021/07/09 07:58:33;;;;;;;11.85;10.13;;;;;;;;;;5071780;28;20506;-63
2021/07/09 08:01:19;;;;;;;14.27;10.63;;;;;;;;;;5070305;28;20456;-63
2021/07/09 08:04:05;;;;;;;10.82;9.73;;;;;;;;;;5070278;28;20041;-63
2021/07/09 08:06:51;;;;;;;9.40;8.43;;;;;;;;;;5071464;28;20425;-63
2021/07/09 08:09:36;;;;;;;10.68;8.95;;;;;;;;;;5070382;28;20499;-63
2021/07/09 08:12:22;;;;;;;9.63;8.50;;;;;;;;;;5071527;28;20041;-63
2021/07/09 08:15:07;;;;;;;10.25;8.95;;;;;;;;;;5070295;28;20912;-63
2021/07/09 08:17:53;;;;;;;10.70;8.80;;;;;;;;;;5071205;28;20045;-63
2021/07/09 08:20:40;;;;;;;9.02;7.97;;;;;;;;;;5070483;28;20071;-63
2021/07/09 08:23:26;;;;;;;10.57;8.07;;;;;;;;;;5071076;28;20422;-63
2021/07/09 08:26:12;;;;;;;8.40;7.50;;;;;;;;;;5072461;28;20047;-63
2021/07/09 08:28:58;;;;;;;9.68;7.60;;;;;;;;;;5072831;28;20045;-64
2021/07/09 08:31:44;;;;;;;9.13;7.57;;;;;;;;;;5074373;28;20058;-63
2021/07/09 08:34:30;;;;;;;11.65;7.80;;;;;;;;;;5073794;28;20517;-63
2021/07/09 08:37:15;;;;;;;9.50;7.90;;;;;;;;;;5074487;28;20048;-63
2021/07/09 08:40:01;;;;;;;10.07;9.00;;;;;;;;;;5073232;28;20052;-63
2021/07/09 08:42:47;;;;;;;9.75;8.05;;;;;;;;;;5074377;28;20044;-63
2021/07/09 08:45:32;;;;;;;9.73;8.35;;;;;;;;;;5074431;28;20044;-64
2021/07/09 08:48:17;;;;;;;7.97;6.60;;;;;;;;;;5074322;28;20047;-64
2021/07/09 08:51:03;;;;;;;7.32;6.63;;;;;;;;;;5058422;28;20044;-64
2021/07/09 08:53:48;;;;;;;7.07;6.38;;;;;;;;;;5072606;28;20049;-63
2021/07/09 08:56:33;;;;;;;9.32;8.13;;;;;;;;;;5074212;28;20063;-64
2021/07/09 08:59:20;;;;;;;8.10;6.90;;;;;;;;;;5059209;28;20072;-63
2021/07/09 09:02:06;;;;;;;8.77;7.60;;;;;;;;;;5073843;28;20083;-64
2021/07/09 09:04:51;;;;;;;8.75;7.78;;;;;;;;;;5073944;28;20051;-63
2021/07/09 09:07:36;;;;;;;11.52;7.75;;;;;;;;;;5074209;28;20052;-63
2021/07/09 09:10:33;;;;;;;7.65;6.78;;;;;;;;;;5071798;28;20048;-64
2021/07/09 09:13:19;;;;;;;9.65;6.80;;;;;;;;;;5073743;28;20056;-63
2021/07/09 09:16:05;;;;;;;9.57;6.80;;;;;;;;;;5069408;28;20094;-63
2021/07/09 09:18:57;;;;;;;7.80;6.50;;;;;;;;;;5065139;28;20056;-63
2021/07/09 09:21:43;;;;;;;7.45;6.75;;;;;;;;;;5064041;28;20053;-63
2021/07/09 09:24:28;;;;;;;7.05;6.30;;;;;;;;;;5049598;28;20045;-63
2021/07/09 09:27:20;;;;;;;7.93;5.97;;;;;;;;;;5059035;28;20133;-63
2021/07/09 09:30:12;;;;;;;7.72;6.72;;;;;;;;;;5060878;28;20197;-63
2021/07/09 09:33:00;;;;;;;6.10;5.50;;;;;;;;;;5059094;28;20132;-64
2021/07/09 09:35:48;;;;;;;6.57;5.97;;;;;;;;;;5073565;28;20139;-64
2021/07/09 09:38:34;;;;;;;6.18;5.63;;;;;;;;;;5072958;28;20049;-64
2021/07/09 09:41:19;;;;;;;6.82;6.13;;;;;;;;;;5072147;28;20053;-64
2021/07/09 09:44:12;;;;;;;6.60;5.40;;;;;;;;;;5094875;22;20045;-65
2021/07/09 09:47:11;;;;;;;5.85;5.22;;;;;;;;;;5053554;28;20049;-65
2021/07/09 09:49:57;;;;;;;6.75;5.28;;;;;;;;;;5053101;28;20423;-65
2021/07/09 09:52:46;;;;;;;8.38;5.40;;;;;;;;;;5057882;28;20048;-65
2021/07/09 09:55:35;;;;;;;7.43;5.10;;;;;;;;;;5073141;28;20445;-65
2021/07/09 09:58:22;;;;;;;5.55;5.05;;;;;;;;;;5072854;28;20580;-65
2021/07/09 10:01:07;;;;;;;8.65;5.00;;;;;;;;;;5072426;28;20410;-65
2021/07/09 10:03:53;;;;;;;8.15;5.40;;;;;;;;;;5072809;28;20053;-65
2021/07/09 10:06:38;;;;;;;5.72;5.03;;;;;;;;;;5072847;28;20053;-65
2021/07/09 10:09:24;;;;;;;7.22;5.30;;;;;;;;;;5071085;28;20413;-65
2021/07/09 10:12:10;;;;;;;5.55;4.78;;;;;;;;;;5069106;28;20098;-65
2021/07/09 10:14:55;;;;;;;4.28;3.78;;;;;;;;;;5072707;28;20055;-65
2021/07/09 10:17:40;;;;;;;4.40;4.00;;;;;;;;;;5071456;28;20086;-65
2021/07/09 10:20:26;;;;;;;5.63;4.40;;;;;;;;;;5069913;28;20053;-65
2021/07/09 10:23:11;;;;;;;5.55;4.75;;;;;;;;;;5072162;28;20558;-65
2021/07/09 10:25:56;;;;;;;4.65;4.15;;;;;;;;;;5072438;28;20146;-65
2021/07/09 10:28:41;;;;;;;6.38;4.32;;;;;;;;;;5071046;28;20044;-65
2021/07/09 10:31:36;;;;;;;11.50;5.15;;;;;;;;;;5032300;28;20041;-65
2021/07/09 10:34:34;;;;;;;5.68;4.00;;;;;;;;;;5032361;28;20051;-65
2021/07/09 10:37:23;;;;;;;5.30;4.32;;;;;;;;;;5032582;28;20060;-65
2021/07/09 10:40:19;;;;;;;6.68;5.20;;;;;;;;;;5046748;28;20518;-65
2021/07/09 10:43:05;;;;;;;5.05;4.20;;;;;;;;;;5072049;28;20059;-65
2021/07/09 10:45:50;;;;;;;8.75;4.82;;;;;;;;;;5072206;28;20098;-65
2021/07/09 10:48:39;;;;;;;7.13;5.38;;;;;;;;;;5070635;28;20052;-65
2021/07/09 10:51:24;;;;;;;5.88;4.72;;;;;;;;;;5062976;28;20041;-65
2021/07/09 10:54:25;;;;;;;5.65;5.15;;;;;;;;;;5048938;28;20040;-64
2021/07/09 10:57:21;;;;;;;7.40;5.20;;;;;;;;;;5050337;28;20423;-65
2021/07/09 11:00:26;;;;;;;5.78;4.72;;;;;;;;;;5050079;28;20076;-65
2021/07/09 11:03:12;;;;;;;8.50;5.00;;;;;;;;;;5032220;28;20053;-65
2021/07/09 11:05:58;;;;;;;5.68;4.80;;;;;;;;;;5032203;28;20045;-65
2021/07/09 11:08:44;;;;;;;5.50;5.00;;;;;;;;;;5031914;28;20041;-65
2021/07/09 11:11:40;;;;;;;5.70;4.82;;;;;;;;;;5053043;28;20056;-65
2021/07/09 11:14:32;;;;;;;6.22;5.00;;;;;;;;;;5071821;28;20510;-65
2021/07/09 11:17:18;;;;;;;5.22;4.07;;;;;;;;;;5072057;28;20422;-65
2021/07/09 11:20:17;;;;;;;4.90;4.38;;;;;;;;;;5071517;28;20055;-65
2021/07/09 11:23:06;;;;;;;5.63;4.75;;;;;;;;;;5053684;28;20052;-65
2021/07/09 11:25:51;;;;;;;7.03;4.43;;;;;;;;;;5071667;28;20040;-65
2021/07/09 11:28:37;;;;;;;4.82;4.20;;;;;;;;;;5070578;28;20052;-65
2021/07/09 11:31:31;;;;;;;6.72;4.57;;;;;;;;;;5050142;28;20409;-65
2021/07/09 11:34:17;;;;;;;7.72;4.82;;;;;;;;;;5051761;28;20126;-65
2021/07/09 11:37:03;;;;;;;4.93;3.95;;;;;;;;;;5051414;28;20052;-65
2021/07/09 11:39:49;;;;;;;4.10;3.65;;;;;;;;;;5050303;28;20579;-65
2021/07/09 11:42:35;;;;;;;3.92;3.40;;;;;;;;;;5051232;28;20041;-65
2021/07/09 11:45:23;;;;;;;4.20;3.80;;;;;;;;;;5071599;28;20047;-65
2021/07/09 11:48:08;;;;;;;12.27;3.97;;;;;;;;;;5071752;28;20044;-65
2021/07/09 11:50:53;;;;;;;5.03;3.50;;;;;;;;;;5071425;28;20047;-65
2021/07/09 11:53:38;;;;;;;4.15;3.55;;;;;;;;;;5067078;28;20124;-65
2021/07/09 11:56:24;;;;;;;5.40;4.13;;;;;;;;;;5049278;28;20561;-65
2021/07/09 11:59:13;;;;;;;5.30;3.20;;;;;;;;;;5050210;28;20415;-65
2021/07/09 12:02:05;;;;;;;5.38;3.08;;;;;;;;;;5052235;28;20044;-65
2021/07/09 12:04:51;;;;;;;3.80;3.22;;;;;;;;;;5053946;28;20052;-65
2021/07/09 12:07:38;;;;;;;3.40;3.10;;;;;;;;;;5052125;28;20048;-66
2021/07/09 12:10:24;;;;;;;9.82;3.53;;;;;;;;;;5050967;28;20435;-65
2021/07/09 12:13:09;;;;;;;4.72;3.78;;;;;;;;;;5053039;28;20045;-65
2021/07/09 12:15:55;;;;;;;4.93;3.90;;;;;;;;;;5054898;28;20120;-65
2021/07/09 12:18:40;;;;;;;6.00;3.45;;;;;;;;;;5051180;28;20048;-65
2021/07/09 12:21:27;;;;;;;5.72;3.85;;;;;;;;;;5051714;28;20044;-65
2021/07/09 12:24:12;;;;;;;13.93;3.80;;;;;;;;;;5053102;28;20127;-65
2021/07/09 12:26:57;;;;;;;4.18;3.17;;;;;;;;;;5050255;28;20172;-65
2021/07/09 12:29:43;;;;;;;8.13;3.25;;;;;;;;;;5052293;28;20505;-65
2021/07/09 12:32:28;;;;;;;3.35;2.85;;;;;;;;;;5052213;28;20060;-65
2021/07/09 12:35:13;;;;;;;6.15;3.67;;;;;;;;;;5049963;28;20588;-64
2021/07/09 12:38:03;;;;;;;3.22;2.97;;;;;;;;;;5051367;28;20056;-65
2021/07/09 12:40:49;;;;;;;4.63;3.40;;;;;;;;;;5048536;28;20056;-64
2021/07/09 12:43:45;;;;;;;3.22;2.42;;;;;;;;;;5051751;28;20106;-65
2021/07/09 12:46:30;;;;;;;8.77;3.42;;;;;;;;;;5055937;28;20040;-64
2021/07/09 12:49:21;;;;;;;3.05;2.75;;;;;;;;;;5052846;28;20037;-65
2021/07/09 12:52:07;;;;;;;5.47;3.35;;;;;;;;;;5054242;28;20064;-65
2021/07/09 12:54:52;;;;;;;5.15;3.72;;;;;;;;;;5069045;28;20057;-65
2021/07/09 12:57:37;;;;;;;3.72;3.40;;;;;;;;;;5074347;28;20132;-64
2021/07/09 13:00:23;;;;;;;3.90;3.25;;;;;;;;;;5073820;28;20138;-65
2021/07/09 13:03:08;;;;;;;4.07;3.35;;;;;;;;;;5074268;28;20052;-65
2021/07/09 13:06:00;;;;;;;4.97;3.60;;;;;;;;;;5034176;28;20069;-65
2021/07/09 13:08:47;;;;;;;7.05;3.90;;;;;;;;;;5034323;28;20046;-65
2021/07/09 13:11:36;;;;;;;4.63;4.07;;;;;;;;;;5033101;28;20076;-65
2021/07/09 13:14:30;;;;;;;6.30;4.65;;;;;;;;;;5045421;28;20098;-65
2021/07/09 13:17:19;;;;;;;5.28;4.78;;;;;;;;;;5073956;28;20059;-65
2021/07/09 13:20:08;;;;;;;8.70;4.43;;;;;;;;;;5073280;28;20427;-65
2021/07/09 13:22:53;;;;;;;4.68;4.28;;;;;;;;;;5073595;28;20190;-65
2021/07/09 13:25:39;;;;;;;6.50;4.47;;;;;;;;;;5070507;28;20055;-65
2021/07/09 13:28:24;;;;;;;7.68;3.72;;;;;;;;;;5073810;28;20053;-65
2021/07/09 13:31:10;;;;;;;4.53;3.60;;;;;;;;;;5073302;28;20063;-65
2021/07/09 13:33:55;;;;;;;6.28;4.50;;;;;;;;;;5073644;28;20044;-65
2021/07/09 13:36:41;;;;;;;7.93;5.43;;;;;;;;;;5073044;28;20564;-65
2021/07/09 13:39:26;;;;;;;5.22;4.40;;;;;;;;;;5073170;28;20165;-65
2021/07/09 13:42:11;;;;;;;4.93;4.43;;;;;;;;;;5073285;28;20062;-65
2021/07/09 13:44:57;;;;;;;4.97;4.47;;;;;;;;;;5070690;28;20049;-65
2021/07/09 13:47:42;;;;;;;7.05;5.78;;;;;;;;;;5071659;28;20051;-65
2021/07/09 13:50:31;;;;;;;6.00;5.50;;;;;;;;;;5072856;28;20048;-65
2021/07/09 13:53:16;;;;;;;8.38;6.82;;;;;;;;;;5073144;28;20037;-65
2021/07/09 13:56:01;;;;;;;6.75;6.07;;;;;;;;;;5071339;28;20057;-65
2021/07/09 13:58:47;;;;;;;7.20;6.50;;;;;;;;;;5072878;28;20059;-65
2021/07/09 14:01:32;;;;;;;7.85;6.20;;;;;;;;;;5072572;28;20040;-65
2021/07/09 14:04:18;;;;;;;6.90;6.00;;;;;;;;;;5072779;28;20482;-65
2021/07/09 14:07:04;;;;;;;6.75;6.03;;;;;;;;;;5071028;28;20533;-65
2021/07/09 14:09:50;;;;;;;9.27;5.80;;;;;;;;;;5072473;28;20113;-65
2021/07/09 14:12:35;;;;;;;6.93;5.90;;;;;;;;;;5072450;28;20044;-65
2021/07/09 14:15:20;;;;;;;6.18;5.13;;;;;;;;;;5072525;28;20059;-65
2021/07/09 14:18:06;;;;;;;7.78;7.05;;;;;;;;;;5069007;28;20053;-65
2021/07/09 14:20:51;;;;;;;8.95;7.00;;;;;;;;;;5072360;28;20052;-64
2021/07/09 14:23:37;;;;;;;7.57;6.13;;;;;;;;;;5071418;28;20049;-65
2021/07/09 14:26:22;;;;;;;6.53;5.85;;;;;;;;;;5072418;28;20218;-65
2021/07/09 14:29:07;;;;;;;7.85;5.32;;;;;;;;;;5071326;28;20120;-65
2021/07/09 14:31:53;;;;;;;8.48;5.57;;;;;;;;;;5071969;28;20048;-65
2021/07/09 14:34:38;;;;;;;6.07;5.38;;;;;;;;;;5072197;28;20055;-65
2021/07/09 14:37:24;;;;;;;6.18;5.57;;;;;;;;;;5070882;28;20097;-65
2021/07/09 14:40:09;;;;;;;5.80;5.20;;;;;;;;;;5072017;28;20044;-65
2021/07/09 14:42:55;;;;;;;5.57;4.55;;;;;;;;;;5051686;28;20159;-65
2021/07/09 14:45:40;;;;;;;4.95;4.35;;;;;;;;;;5053627;28;20109;-65
2021/07/09 14:48:25;;;;;;;5.45;4.28;;;;;;;;;;5043563;28;20136;-65
2021/07/09 14:51:11;;;;;;;5.78;4.60;;;;;;;;;;5049550;28;20055;-65
2021/07/09 14:53:56;;;;;;;7.80;5.45;;;;;;;;;;5039471;28;20117;-64
2021/07/09 14:56:41;;;;;;;5.88;4.57;;;;;;;;;;5060672;28;20047;-64
2021/07/09 14:59:27;;;;;;;6.85;4.57;;;;;;;;;;5054884;28;20419;-65
2021/07/09 15:02:12;;;;;;;4.25;3.90;;;;;;;;;;5045892;28;20521;-65
2021/07/09 15:04:57;;;;;;;8.35;4.53;;;;;;;;;;5049118;28;20055;-64
2021/07/09 15:07:42;;;;;;;3.92;3.42;;;;;;;;;;5065686;28;20103;-64
2021/07/09 15:10:28;;;;;;;3.50;3.20;;;;;;;;;;5069066;28;20044;-65
2021/07/09 15:13:14;;;;;;;4.63;2.72;;;;;;;;;;5070144;28;20049;-64
2021/07/09 15:15:59;;;;;;;3.85;3.03;;;;;;;;;;5067309;28;20060;-65
2021/07/09 15:18:44;;;;;;;3.88;3.28;;;;;;;;;;5030307;28;20060;-64
2021/07/09 15:21:30;;;;;;;4.13;3.72;;;;;;;;;;5028990;28;20122;-65
2021/07/09 15:24:15;;;;;;;5.75;3.28;;;;;;;;;;5029943;28;20492;-65
2021/07/09 15:27:01;;;;;;;4.95;3.50;;;;;;;;;;5042315;28;20054;-65
2021/07/09 15:29:46;;;;;;;4.15;3.10;;;;;;;;;;5053354;28;20075;-65
2021/07/09 15:32:31;;;;;;;7.05;4.40;;;;;;;;;;5049047;28;20723;-65
2021/07/09 15:35:16;;;;;;;6.25;5.35;;;;;;;;;;5051232;28;20059;-65
2021/07/09 15:38:02;;;;;;;6.43;5.38;;;;;;;;;;5062942;28;20056;-65
2021/07/09 15:40:47;;;;;;;6.82;6.00;;;;;;;;;;5073199;28;20124;-64
2021/07/09 15:43:32;;;;;;;5.88;5.38;;;;;;;;;;5094986;22;20037;-64
2021/07/09 15:46:18;;;;;;;8.38;5.20;;;;;;;;;;5089116;28;20044;-65
2021/07/09 15:49:03;;;;;;;5.63;4.55;;;;;;;;;;5075796;28;20091;-64
2021/07/09 15:51:49;;;;;;;4.63;4.22;;;;;;;;;;5105134;28;20063;-64
2021/07/09 15:54:34;;;;;;;7.38;4.45;;;;;;;;;;5087320;28;20044;-64
2021/07/09 15:57:19;;;;;;;5.43;4.93;;;;;;;;;;5107152;28;20557;-64
2021/07/09 16:00:06;;;;;;;5.47;4.60;;;;;;;;;;5107158;28;20051;-64
2021/07/09 16:02:56;;;;;;;5.60;5.10;;;;;;;;;;5092937;28;20043;-65
2021/07/09 16:05:42;;;;;;;5.55;5.00;;;;;;;;;;5085444;28;20063;-64
2021/07/09 16:08:27;;;;;;;11.25;5.22;;;;;;;;;;5092631;28;20165;-64
2021/07/09 16:11:13;;;;;;;5.00;4.50;;;;;;;;;;5091723;28;20044;-63
2021/07/09 16:13:59;;;;;;;4.82;4.28;;;;;;;;;;5083880;28;20046;-64
2021/07/09 16:16:44;;;;;;;4.68;4.28;;;;;;;;;;5086925;28;20527;-64